createdAt,value
2023-04-11T00:00:22.207Z,1012.74
2023-04-11T00:01:22.361Z,1012.76
2023-04-11T00:02:22.674Z,1012.69
2023-04-11T00:03:23.279Z,1012.62
2023-04-11T00:04:23.035Z,1012.63
2023-04-11T00:05:23.053Z,1012.57
2023-04-11T00:06:23.233Z,1012.56
2023-04-11T00:07:23.394Z,1012.61
2023-04-11T00:08:23.558Z,1012.62
2023-04-11T00:09:23.732Z,1012.63
2023-04-11T00:10:23.897Z,1012.56
2023-04-11T00:11:24.070Z,1012.54
2023-04-11T00:12:24.247Z,1012.51
2023-04-11T00:13:24.428Z,1012.47
2023-04-11T00:14:24.594Z,1012.47
2023-04-11T00:15:24.757Z,1012.59
2023-04-11T00:16:24.984Z,1012.47
2023-04-11T00:17:25.148Z,1012.45
2023-04-11T00:18:25.334Z,1012.46
2023-04-11T00:19:25.488Z,1012.38
2023-04-11T00:20:25.654Z,1012.42
2023-04-11T00:21:25.824Z,1012.40
2023-04-11T00:22:25.989Z,1012.31
2023-04-11T00:23:26.164Z,1012.35
2023-04-11T00:24:26.329Z,1012.23
2023-04-11T00:25:26.488Z,1012.33
2023-04-11T00:26:26.651Z,1012.29
2023-04-11T00:27:26.827Z,1012.27
2023-04-11T00:28:27.006Z,1012.26
2023-04-11T00:29:27.165Z,1012.21
2023-04-11T00:30:27.334Z,1012.21
2023-04-11T00:31:27.557Z,1012.21
2023-04-11T00:32:27.706Z,1012.18
2023-04-11T00:33:27.910Z,1012.17
2023-04-11T00:34:28.026Z,1012.14
2023-04-11T00:35:28.209Z,1012.15
2023-04-11T00:36:28.424Z,1012.17
2023-04-11T00:37:28.532Z,1012.12
2023-04-11T00:38:28.713Z,1012.07
2023-04-11T00:39:28.882Z,1012.11
2023-04-11T00:40:29.099Z,1012.05
2023-04-11T00:41:29.206Z,1012.06
2023-04-11T00:42:29.369Z,1011.99
2023-04-11T00:43:29.540Z,1012.02
2023-04-11T00:44:29.705Z,1012.07
2023-04-11T00:45:29.910Z,1012.06
2023-04-11T00:46:30.055Z,1011.93
2023-04-11T00:47:30.255Z,1011.97
2023-04-11T00:48:30.417Z,1012.00
2023-04-11T00:49:30.573Z,1012.01
2023-04-11T00:50:30.739Z,1011.91
2023-04-11T00:51:30.926Z,1011.97
2023-04-11T00:52:31.213Z,1011.96
2023-04-11T00:53:31.249Z,1011.93
2023-04-11T00:54:31.422Z,1011.90
2023-04-11T00:55:31.586Z,1011.88
2023-04-11T00:56:31.771Z,1011.84
2023-04-11T00:57:31.940Z,1011.83
2023-04-11T00:58:32.143Z,1011.76
2023-04-11T00:59:32.292Z,1011.78
2023-04-11T01:00:32.453Z,1011.71
2023-04-11T01:01:32.732Z,1011.70
2023-04-11T01:02:32.915Z,1011.52
2023-04-11T01:03:33.111Z,1011.63
2023-04-11T01:04:33.164Z,1011.55
2023-04-11T01:05:33.334Z,1011.51
2023-04-11T01:06:33.495Z,1011.54
2023-04-11T01:07:33.671Z,1011.54
2023-04-11T01:08:33.845Z,1011.55
2023-04-11T01:09:34.025Z,1011.57
2023-04-11T01:10:34.171Z,1011.54
2023-04-11T01:11:34.348Z,1011.54
2023-04-11T01:12:34.510Z,1011.43
2023-04-11T01:13:34.679Z,1011.48
2023-04-11T01:14:34.847Z,1011.46
2023-04-11T01:15:35.014Z,1011.47
2023-04-11T01:16:35.191Z,1011.46
2023-04-11T01:17:35.371Z,1011.41
2023-04-11T01:18:35.513Z,1011.45
2023-04-11T01:19:35.678Z,1011.43
2023-04-11T01:20:35.840Z,1011.47
2023-04-11T01:21:36.002Z,1011.46
2023-04-11T01:22:36.162Z,1011.44
2023-04-11T01:23:36.344Z,1011.39
2023-04-11T01:24:36.506Z,1011.34
2023-04-11T01:25:36.659Z,1011.33
2023-04-11T01:26:36.824Z,1011.31
2023-04-11T01:27:36.996Z,1011.30
2023-04-11T01:28:37.159Z,1011.29
2023-04-11T01:29:37.318Z,1011.25
2023-04-11T01:30:37.513Z,1011.25
2023-04-11T01:31:37.646Z,1011.16
2023-04-11T01:32:37.849Z,1011.15
2023-04-11T01:33:37.994Z,1011.08
2023-04-11T01:34:38.147Z,1011.07
2023-04-11T01:35:38.332Z,1011.04
2023-04-11T01:36:38.478Z,1011.05
2023-04-11T01:37:38.699Z,1011.03
2023-04-11T01:38:38.845Z,1011.02
2023-04-11T01:39:39.001Z,1011.04
2023-04-11T01:40:39.181Z,1011.00
2023-04-11T01:41:39.337Z,1011.02
2023-04-11T01:42:39.498Z,1011.01
2023-04-11T01:43:39.660Z,1011.01
2023-04-11T01:44:39.829Z,1010.98
2023-04-11T01:45:40.009Z,1011.01
2023-04-11T01:46:40.172Z,1010.97
2023-04-11T01:47:40.457Z,1011.00
2023-04-11T01:48:40.685Z,1010.96
2023-04-11T01:49:40.646Z,1010.92
2023-04-11T01:50:40.835Z,1010.91
2023-04-11T01:51:41.018Z,1010.91
2023-04-11T01:52:41.177Z,1010.89
2023-04-11T01:53:41.339Z,1010.87
2023-04-11T01:54:41.499Z,1010.84
2023-04-11T01:55:41.670Z,1010.83
2023-04-11T01:56:41.839Z,1010.87
2023-04-11T01:57:42.027Z,1010.76
2023-04-11T01:58:42.193Z,1010.82
2023-04-11T01:59:42.349Z,1010.75
2023-04-11T02:00:42.536Z,1010.76
2023-04-11T02:01:42.833Z,1010.72
2023-04-11T02:02:42.991Z,1010.67
2023-04-11T02:03:43.199Z,1010.64
2023-04-11T02:04:43.211Z,1010.65
2023-04-11T02:05:43.386Z,1010.68
2023-04-11T02:06:43.574Z,1010.61
2023-04-11T02:07:43.736Z,1010.52
2023-04-11T02:08:43.912Z,1010.53
2023-04-11T02:09:44.077Z,1010.50
2023-04-11T02:10:44.237Z,1010.47
2023-04-11T02:11:44.409Z,1010.46
2023-04-11T02:12:44.592Z,1010.45
2023-04-11T02:13:44.765Z,1010.45
2023-04-11T02:14:44.910Z,1010.42
2023-04-11T02:15:45.112Z,1010.38
2023-04-11T02:16:45.228Z,1010.34
2023-04-11T02:17:45.692Z,1010.38
2023-04-11T02:18:45.580Z,1010.29
2023-04-11T02:19:45.759Z,1010.28
2023-04-11T02:20:45.926Z,1010.25
2023-04-11T02:21:46.094Z,1010.26
2023-04-11T02:22:46.271Z,1010.30
2023-04-11T02:23:46.433Z,1010.27
2023-04-11T02:24:46.595Z,1010.25
2023-04-11T02:25:46.800Z,1010.28
2023-04-11T02:26:46.958Z,1010.23
2023-04-11T02:27:47.136Z,1010.24
2023-04-11T02:28:47.293Z,1010.19
2023-04-11T02:29:47.505Z,1010.28
2023-04-11T02:30:47.690Z,1010.24
2023-04-11T02:31:47.934Z,1010.12
2023-04-11T02:32:48.036Z,1010.15
2023-04-11T02:33:48.168Z,1010.23
2023-04-11T02:34:48.332Z,1010.12
2023-04-11T02:35:48.561Z,1010.11
2023-04-11T02:36:48.688Z,1010.05
2023-04-11T02:37:48.845Z,1010.06
2023-04-11T02:38:49.013Z,1010.12
2023-04-11T02:39:49.181Z,1010.07
2023-04-11T02:40:49.379Z,1010.12
2023-04-11T02:41:49.523Z,1010.06
2023-04-11T02:42:49.689Z,1010.03
2023-04-11T02:43:49.852Z,1010.01
2023-04-11T02:44:50.018Z,1010.02
2023-04-11T02:45:52.406Z,1010.02
2023-04-11T02:46:50.399Z,1010.01
2023-04-11T02:47:50.550Z,1010.08
2023-04-11T02:48:50.685Z,1010.02
2023-04-11T02:49:50.855Z,1010.05
2023-04-11T02:50:51.031Z,1010.01
2023-04-11T02:51:51.216Z,1010.02
2023-04-11T02:52:51.386Z,1009.99
2023-04-11T02:53:51.558Z,1010.01
2023-04-11T02:54:51.701Z,1010.03
2023-04-11T02:55:51.877Z,1010.05
2023-04-11T02:56:52.043Z,1010.10
2023-04-11T02:57:52.206Z,1010.07
2023-04-11T02:58:52.379Z,1010.06
2023-04-11T02:59:52.534Z,1010.01
2023-04-11T03:00:52.725Z,1010.03
2023-04-11T03:01:52.895Z,1010.00
2023-04-11T03:02:53.156Z,1009.98
2023-04-11T03:03:53.290Z,1009.93
2023-04-11T03:04:53.365Z,1009.95
2023-04-11T03:05:53.520Z,1009.91
2023-04-11T03:06:53.704Z,1009.90
2023-04-11T03:07:53.873Z,1009.88
2023-04-11T03:08:54.292Z,1009.92
2023-04-11T03:09:54.193Z,1009.92
2023-04-11T03:10:54.387Z,1009.87
2023-04-11T03:11:54.540Z,1009.86
2023-04-11T03:12:54.715Z,1009.87
2023-04-11T03:13:54.883Z,1009.88
2023-04-11T03:14:55.041Z,1009.94
2023-04-11T03:15:55.227Z,1009.90
2023-04-11T03:16:55.381Z,1009.91
2023-04-11T03:17:55.571Z,1009.91
2023-04-11T03:18:55.887Z,1009.94
2023-04-11T03:19:55.894Z,1009.92
2023-04-11T03:20:56.126Z,1009.88
2023-04-11T03:21:56.235Z,1009.90
2023-04-11T03:22:56.401Z,1009.87
2023-04-11T03:23:56.561Z,1009.89
2023-04-11T03:24:56.726Z,1009.80
2023-04-11T03:25:56.920Z,1009.86
2023-04-11T03:26:57.072Z,1009.80
2023-04-11T03:27:57.242Z,1009.79
2023-04-11T03:28:57.623Z,1009.72
2023-04-11T03:29:57.564Z,1009.77
2023-04-11T03:30:57.827Z,1009.79
2023-04-11T03:31:57.950Z,1009.85
2023-04-11T03:32:58.110Z,1009.80
2023-04-11T03:33:58.252Z,1009.78
2023-04-11T03:34:58.407Z,1009.81
2023-04-11T03:35:58.620Z,1009.78
2023-04-11T03:36:58.782Z,1009.82
2023-04-11T03:37:58.937Z,1009.76
2023-04-11T03:38:59.108Z,1009.81
2023-04-11T03:39:59.302Z,1009.79
2023-04-11T03:40:59.485Z,1009.85
2023-04-11T03:41:59.648Z,1009.81
2023-04-11T03:43:00.255Z,1009.78
2023-04-11T03:43:59.992Z,1009.78
2023-04-11T03:45:00.169Z,1009.81
2023-04-11T03:46:00.341Z,1009.79
2023-04-11T03:47:00.572Z,1009.71
2023-04-11T03:48:00.693Z,1009.74
2023-04-11T03:49:00.824Z,1009.74
2023-04-11T03:50:01.020Z,1009.68
2023-04-11T03:51:01.164Z,1009.68
2023-04-11T03:52:01.319Z,1009.76
2023-04-11T03:53:01.480Z,1009.75
2023-04-11T03:54:01.648Z,1009.73
2023-04-11T03:55:01.829Z,1009.77
2023-04-11T03:56:01.975Z,1009.83
2023-04-11T03:57:02.144Z,1009.82
2023-04-11T03:58:02.310Z,1009.78
2023-04-11T03:59:02.478Z,1009.76
2023-04-11T04:00:02.649Z,1009.77
2023-04-11T04:01:02.853Z,1009.77
2023-04-11T04:02:03.095Z,1009.79
2023-04-11T04:03:03.363Z,1009.78
2023-04-11T04:04:03.764Z,1009.78
2023-04-11T04:05:03.758Z,1009.79
2023-04-11T04:06:03.718Z,1009.80
2023-04-11T04:07:03.868Z,1009.81
2023-04-11T04:08:04.029Z,1009.73
2023-04-11T04:09:04.194Z,1009.75
2023-04-11T04:10:04.376Z,1009.74
2023-04-11T04:11:04.507Z,1009.65
2023-04-11T04:12:04.691Z,1009.64
2023-04-11T04:13:04.832Z,1009.56
2023-04-11T04:14:04.996Z,1009.57
2023-04-11T04:15:05.197Z,1009.53
2023-04-11T04:16:05.381Z,1009.52
2023-04-11T04:17:05.519Z,1009.57
2023-04-11T04:18:05.867Z,1009.54
2023-04-11T04:19:05.881Z,1009.56
2023-04-11T04:20:06.076Z,1009.61
2023-04-11T04:21:06.216Z,1009.64
2023-04-11T04:22:06.403Z,1009.66
2023-04-11T04:23:06.563Z,1009.69
2023-04-11T04:24:06.742Z,1009.64
2023-04-11T04:25:06.921Z,1009.65
2023-04-11T04:26:07.091Z,1009.62
2023-04-11T04:27:07.264Z,1009.62
2023-04-11T04:28:07.448Z,1009.59
2023-04-11T04:29:07.631Z,1009.57
2023-04-11T04:30:07.856Z,1009.58
2023-04-11T04:31:07.995Z,1009.56
2023-04-11T04:32:08.272Z,1009.55
2023-04-11T04:33:08.345Z,1009.54
2023-04-11T04:34:08.576Z,1009.53
2023-04-11T04:35:08.702Z,1009.47
2023-04-11T04:36:08.882Z,1009.46
2023-04-11T04:37:09.027Z,1009.40
2023-04-11T04:38:09.211Z,1009.44
2023-04-11T04:39:09.395Z,1009.39
2023-04-11T04:40:09.597Z,1009.40
2023-04-11T04:41:09.738Z,1009.35
2023-04-11T04:42:09.921Z,1009.37
2023-04-11T04:43:10.110Z,1009.39
2023-04-11T04:44:10.290Z,1009.42
2023-04-11T04:45:10.490Z,1009.43
2023-04-11T04:46:10.676Z,1009.45
2023-04-11T04:47:10.789Z,1009.42
2023-04-11T04:48:11.053Z,1009.44
2023-04-11T04:49:11.133Z,1009.38
2023-04-11T04:50:11.337Z,1009.30
2023-04-11T04:51:11.529Z,1009.39
2023-04-11T04:52:11.677Z,1009.44
2023-04-11T04:53:11.854Z,1009.49
2023-04-11T04:54:12.048Z,1009.39
2023-04-11T04:55:12.251Z,1009.41
2023-04-11T04:56:12.371Z,1009.45
2023-04-11T04:57:12.569Z,1009.44
2023-04-11T04:58:12.722Z,1009.46
2023-04-11T04:59:12.876Z,1009.39
2023-04-11T05:00:13.063Z,1009.44
2023-04-11T05:01:13.265Z,1009.47
2023-04-11T05:02:13.460Z,1009.44
2023-04-11T05:03:13.685Z,1009.44
2023-04-11T05:04:13.946Z,1009.48
2023-04-11T05:05:13.906Z,1009.52
2023-04-11T05:06:14.064Z,1009.46
2023-04-11T05:07:14.232Z,1009.42
2023-04-11T05:08:14.431Z,1009.35
2023-04-11T05:09:14.609Z,1009.31
2023-04-11T05:10:14.781Z,1009.34
2023-04-11T05:11:14.949Z,1009.30
2023-04-11T05:12:15.118Z,1009.32
2023-04-11T05:13:15.274Z,1009.34
2023-04-11T05:14:15.441Z,1009.34
2023-04-11T05:15:15.600Z,1009.36
2023-04-11T05:16:15.801Z,1009.30
2023-04-11T05:17:15.984Z,1009.32
2023-04-11T05:18:16.126Z,1009.32
2023-04-11T05:19:16.291Z,1009.31
2023-04-11T05:20:16.484Z,1009.24
2023-04-11T05:21:16.665Z,1009.17
2023-04-11T05:22:16.827Z,1009.23
2023-04-11T05:23:16.969Z,1009.29
2023-04-11T05:24:17.143Z,1009.27
2023-04-11T05:25:17.301Z,1009.36
2023-04-11T05:26:17.454Z,1009.42
2023-04-11T05:27:17.653Z,1009.64
2023-04-11T05:28:17.837Z,1009.66
2023-04-11T05:29:18.027Z,1009.72
2023-04-11T05:30:18.173Z,1009.63
2023-04-11T05:31:18.439Z,1009.65
2023-04-11T05:32:18.522Z,1009.67
2023-04-11T05:33:18.726Z,1009.66
2023-04-11T05:34:18.905Z,1009.65
2023-04-11T05:35:19.067Z,1009.63
2023-04-11T05:36:19.220Z,1009.60
2023-04-11T05:37:19.386Z,1009.63
2023-04-11T05:38:19.564Z,1009.61
2023-04-11T05:39:19.770Z,1009.60
2023-04-11T05:40:19.958Z,1009.61
2023-04-11T05:41:20.131Z,1009.65
2023-04-11T05:42:20.310Z,1009.70
2023-04-11T05:43:20.467Z,1009.67
2023-04-11T05:44:20.627Z,1009.66
2023-04-11T05:45:20.808Z,1009.69
2023-04-11T05:46:20.975Z,1009.66
2023-04-11T05:47:21.229Z,1009.71
2023-04-11T05:48:21.347Z,1009.67
2023-04-11T05:49:21.526Z,1009.63
2023-04-11T05:50:21.716Z,1009.63
2023-04-11T05:51:21.877Z,1009.63
2023-04-11T05:52:22.075Z,1009.61
2023-04-11T05:53:22.215Z,1009.56
2023-04-11T05:54:22.399Z,1009.55
2023-04-11T05:55:22.598Z,1009.51
2023-04-11T05:56:22.741Z,1009.51
2023-04-11T05:57:22.888Z,1009.52
2023-04-11T05:58:23.069Z,1009.53
2023-04-11T05:59:26.426Z,1009.43
2023-04-11T06:00:23.445Z,1009.47
2023-04-11T06:01:23.603Z,1009.41
2023-04-11T06:02:23.891Z,1009.41
2023-04-11T06:03:24.036Z,1009.43
2023-04-11T06:04:24.370Z,1009.46
2023-04-11T06:05:24.311Z,1009.41
2023-04-11T06:06:24.445Z,1009.42
2023-04-11T06:07:24.623Z,1009.39
2023-04-11T06:08:24.806Z,1009.47
2023-04-11T06:09:25.010Z,1009.41
2023-04-11T06:10:25.160Z,1009.39
2023-04-11T06:11:25.334Z,1009.44
2023-04-11T06:12:25.512Z,1009.44
2023-04-11T06:13:25.731Z,1009.47
2023-04-11T06:14:25.873Z,1009.48
2023-04-11T06:15:26.041Z,1009.51
2023-04-11T06:16:26.325Z,1009.50
2023-04-11T06:17:26.376Z,1009.47
2023-04-11T06:18:26.568Z,1009.49
2023-04-11T06:19:26.725Z,1009.48
2023-04-11T06:20:26.942Z,1009.46
2023-04-11T06:21:27.092Z,1009.48
2023-04-11T06:22:27.295Z,1009.44
2023-04-11T06:23:27.469Z,1009.41
2023-04-11T06:24:27.671Z,1009.47
2023-04-11T06:25:27.846Z,1009.45
2023-04-11T06:26:28.004Z,1009.40
2023-04-11T06:27:28.209Z,1009.49
2023-04-11T06:28:28.326Z,1009.48
2023-04-11T06:29:28.490Z,1009.43
2023-04-11T06:30:28.667Z,1009.47
2023-04-11T06:31:28.909Z,1009.46
2023-04-11T06:32:29.018Z,1009.44
2023-04-11T06:33:29.188Z,1009.45
2023-04-11T06:34:29.370Z,1009.47
2023-04-11T06:35:29.554Z,1009.50
2023-04-11T06:36:29.698Z,1009.50
2023-04-11T06:37:29.879Z,1009.52
2023-04-11T06:38:30.058Z,1009.54
2023-04-11T06:39:30.241Z,1009.49
2023-04-11T06:40:30.436Z,1009.48
2023-04-11T06:41:30.582Z,1009.43
2023-04-11T06:42:30.770Z,1009.42
2023-04-11T06:43:30.972Z,1009.38
2023-04-11T06:44:31.172Z,1009.43
2023-04-11T06:45:31.332Z,1009.41
2023-04-11T06:46:31.541Z,1009.43
2023-04-11T06:47:31.670Z,1009.43
2023-04-11T06:48:31.895Z,1009.45
2023-04-11T06:49:32.021Z,1009.47
2023-04-11T06:50:32.156Z,1009.43
2023-04-11T06:51:32.400Z,1009.45
2023-04-11T06:52:32.496Z,1009.48
2023-04-11T06:53:32.701Z,1009.49
2023-04-11T06:54:32.845Z,1009.50
2023-04-11T06:55:33.027Z,1009.44
2023-04-11T06:56:33.211Z,1009.45
2023-04-11T06:57:33.389Z,1009.43
2023-04-11T06:58:33.603Z,1009.42
2023-04-11T06:59:33.767Z,1009.44
2023-04-11T07:00:33.968Z,1009.44
2023-04-11T07:01:34.179Z,1009.43
2023-04-11T07:02:34.486Z,1009.39
2023-04-11T07:03:34.626Z,1009.43
2023-04-11T07:04:34.706Z,1009.46
2023-04-11T07:05:34.844Z,1009.52
2023-04-11T07:06:34.986Z,1009.51
2023-04-11T07:07:35.164Z,1009.50
2023-04-11T07:08:35.402Z,1009.50
2023-04-11T07:09:35.510Z,1009.53
2023-04-11T07:10:35.674Z,1009.57
2023-04-11T07:11:35.847Z,1009.49
2023-04-11T07:12:36.021Z,1009.54
2023-04-11T07:13:36.223Z,1009.54
2023-04-11T07:14:36.361Z,1009.55
2023-04-11T07:15:36.556Z,1009.50
2023-04-11T07:16:36.769Z,1009.55
2023-04-11T07:17:37.002Z,1009.55
2023-04-11T07:18:37.060Z,1009.57
2023-04-11T07:19:37.280Z,1009.62
2023-04-11T07:20:37.419Z,1009.60
2023-04-11T07:21:37.588Z,1009.62
2023-04-11T07:22:37.762Z,1009.60
2023-04-11T07:23:37.940Z,1009.64
2023-04-11T07:24:38.142Z,1009.61
2023-04-11T07:25:38.284Z,1009.61
2023-04-11T07:26:38.483Z,1009.55
2023-04-11T07:27:38.633Z,1009.56
2023-04-11T07:28:38.831Z,1009.57
2023-04-11T07:29:39.021Z,1009.56
2023-04-11T07:30:39.172Z,1009.56
2023-04-11T07:31:39.364Z,1009.60
2023-04-11T07:32:39.553Z,1009.53
2023-04-11T07:33:39.801Z,1009.53
2023-04-11T07:34:40.069Z,1009.54
2023-04-11T07:35:40.125Z,1009.53
2023-04-11T07:36:40.208Z,1009.53
2023-04-11T07:37:40.414Z,1009.59
2023-04-11T07:38:40.570Z,1009.65
2023-04-11T07:39:40.839Z,1009.68
2023-04-11T07:40:40.902Z,1009.68
2023-04-11T07:41:41.092Z,1009.72
2023-04-11T07:42:41.294Z,1009.69
2023-04-11T07:43:41.424Z,1009.69
2023-04-11T07:44:41.618Z,1009.67
2023-04-11T07:45:41.837Z,1009.69
2023-04-11T07:46:41.968Z,1009.70
2023-04-11T07:47:42.178Z,1009.65
2023-04-11T07:48:42.307Z,1009.68
2023-04-11T07:49:42.483Z,1009.66
2023-04-11T07:50:42.677Z,1009.66
2023-04-11T07:51:42.860Z,1009.64
2023-04-11T07:52:43.070Z,1009.67
2023-04-11T07:53:43.208Z,1009.69
2023-04-11T07:54:43.409Z,1009.74
2023-04-11T07:55:43.549Z,1009.72
2023-04-11T07:56:43.722Z,1009.73
2023-04-11T07:57:43.915Z,1009.78
2023-04-11T07:58:44.077Z,1009.83
2023-04-11T07:59:44.281Z,1009.94
2023-04-11T08:00:44.421Z,1010.00
2023-04-11T08:01:44.648Z,1010.08
2023-04-11T08:02:44.963Z,1010.07
2023-04-11T08:03:45.119Z,1010.15
2023-04-11T08:04:45.240Z,1010.07
2023-04-11T08:05:45.311Z,1010.04
2023-04-11T08:06:45.488Z,1010.03
2023-04-11T08:07:45.665Z,1010.02
2023-04-11T08:08:45.845Z,1009.92
2023-04-11T08:09:46.032Z,1009.97
2023-04-11T08:10:46.192Z,1009.97
2023-04-11T08:11:46.385Z,1009.94
2023-04-11T08:12:46.578Z,1009.93
2023-04-11T08:13:46.728Z,1009.97
2023-04-11T08:14:46.887Z,1009.93
2023-04-11T08:15:47.064Z,1009.97
2023-04-11T08:16:47.261Z,1009.99
2023-04-11T08:17:47.685Z,1009.98
2023-04-11T08:18:47.617Z,1010.05
2023-04-11T08:19:47.796Z,1010.03
2023-04-11T08:20:47.977Z,1010.00
2023-04-11T08:21:48.157Z,1010.04
2023-04-11T08:22:48.349Z,1009.98
2023-04-11T08:23:48.580Z,1010.08
2023-04-11T08:24:48.683Z,1010.12
2023-04-11T08:25:48.858Z,1010.13
2023-04-11T08:26:49.049Z,1010.15
2023-04-11T08:27:49.246Z,1010.10
2023-04-11T08:28:49.437Z,1010.15
2023-04-11T08:29:49.617Z,1010.07
2023-04-11T08:30:49.831Z,1010.02
2023-04-11T08:31:50.002Z,1010.04
2023-04-11T08:32:50.222Z,1010.04
2023-04-11T08:33:50.332Z,1010.02
2023-04-11T08:34:50.478Z,1010.00
2023-04-11T08:35:50.696Z,1010.00
2023-04-11T08:36:50.830Z,1009.99
2023-04-11T08:37:51.018Z,1010.03
2023-04-11T08:38:51.202Z,1009.98
2023-04-11T08:39:51.380Z,1010.00
2023-04-11T08:40:51.567Z,1010.04
2023-04-11T08:41:51.742Z,1010.09
2023-04-11T08:42:51.940Z,1010.07
2023-04-11T08:43:52.156Z,1010.09
2023-04-11T08:44:52.278Z,1010.09
2023-04-11T08:45:52.455Z,1010.11
2023-04-11T08:46:52.637Z,1010.06
2023-04-11T08:47:52.803Z,1010.11
2023-04-11T08:48:52.973Z,1010.12
2023-04-11T08:49:53.153Z,1010.08
2023-04-11T08:50:53.327Z,1010.18
2023-04-11T08:51:53.524Z,1010.05
2023-04-11T08:52:53.646Z,1010.12
2023-04-11T08:53:54.040Z,1010.17
2023-04-11T08:54:53.982Z,1010.14
2023-04-11T08:55:54.177Z,1010.10
2023-04-11T08:56:54.338Z,1010.11
2023-04-11T08:57:54.496Z,1010.09
2023-04-11T08:58:54.666Z,1010.07
2023-04-11T08:59:54.833Z,1010.03
2023-04-11T09:00:54.985Z,1010.03
2023-04-11T09:01:55.288Z,1010.03
2023-04-11T09:02:55.451Z,1010.03
2023-04-11T09:03:55.903Z,1010.06
2023-04-11T09:04:55.687Z,1010.06
2023-04-11T09:05:55.821Z,1010.10
2023-04-11T09:06:57.043Z,1010.09
2023-04-11T09:07:56.200Z,1010.07
2023-04-11T09:08:56.358Z,1010.03
2023-04-11T09:09:56.526Z,1010.04
2023-04-11T09:10:56.698Z,1010.07
2023-04-11T09:11:56.873Z,1009.97
2023-04-11T09:12:57.060Z,1009.99
2023-04-11T09:13:57.364Z,1010.00
2023-04-11T09:14:57.403Z,1009.97
2023-04-11T09:15:57.665Z,1009.95
2023-04-11T09:16:57.736Z,1009.93
2023-04-11T09:18:00.660Z,1009.93
2023-04-11T09:18:58.346Z,1009.92
2023-04-11T09:19:58.284Z,1009.91
2023-04-11T09:20:58.493Z,1009.84
2023-04-11T09:21:58.672Z,1009.84
2023-04-11T09:22:58.859Z,1009.88
2023-04-11T09:23:59.003Z,1009.83
2023-04-11T09:24:59.138Z,1009.83
2023-04-11T09:25:59.309Z,1009.86
2023-04-11T09:26:59.470Z,1009.85
2023-04-11T09:27:59.665Z,1009.82
2023-04-11T09:29:00.003Z,1009.91
2023-04-11T09:29:59.992Z,1009.89
2023-04-11T09:31:00.180Z,1009.91
2023-04-11T09:32:00.325Z,1009.89
2023-04-11T09:33:00.565Z,1009.87
2023-04-11T09:34:00.946Z,1009.87
2023-04-11T09:35:00.824Z,1009.80
2023-04-11T09:36:01.021Z,1009.84
2023-04-11T09:37:01.201Z,1009.82
2023-04-11T09:38:01.381Z,1009.77
2023-04-11T09:39:01.546Z,1009.81
2023-04-11T09:40:01.957Z,1009.72
2023-04-11T09:41:01.873Z,1009.69
2023-04-11T09:42:02.062Z,1009.70
2023-04-11T09:43:02.259Z,1009.72
2023-04-11T09:44:02.594Z,1009.72
2023-04-11T09:45:02.592Z,1009.75
2023-04-11T09:46:02.789Z,1009.66
2023-04-11T09:47:03.038Z,1009.62
2023-04-11T09:48:03.142Z,1009.65
2023-04-11T09:49:03.525Z,1009.69
2023-04-11T09:50:03.459Z,1009.73
2023-04-11T09:51:03.635Z,1009.66
2023-04-11T09:52:03.839Z,1009.66
2023-04-11T09:53:04.003Z,1009.67
2023-04-11T09:54:04.732Z,1009.52
2023-04-11T09:55:04.344Z,1009.57
2023-04-11T09:56:04.515Z,1009.55
2023-04-11T09:57:04.674Z,1009.54
2023-04-11T09:58:04.890Z,1009.33
2023-04-11T09:59:05.188Z,1009.42
2023-04-11T10:00:05.205Z,1009.40
2023-04-11T10:01:05.361Z,1009.40
2023-04-11T10:02:05.626Z,1009.44
2023-04-11T10:03:05.788Z,1009.33
2023-04-11T10:04:05.897Z,1009.36
2023-04-11T10:05:06.117Z,1009.35
2023-04-11T10:06:06.190Z,1009.36
2023-04-11T10:07:06.391Z,1009.28
2023-04-11T10:08:06.609Z,1009.34
2023-04-11T10:09:06.727Z,1009.29
2023-04-11T10:10:06.909Z,1009.33
2023-04-11T10:11:07.080Z,1009.38
2023-04-11T10:12:07.318Z,1009.50
2023-04-11T10:13:07.425Z,1009.49
2023-04-11T10:14:07.716Z,1009.35
2023-04-11T10:15:07.799Z,1009.43
2023-04-11T10:16:07.975Z,1009.30
2023-04-11T10:17:08.143Z,1009.37
2023-04-11T10:18:08.361Z,1009.37
2023-04-11T10:19:08.502Z,1009.39
2023-04-11T10:20:08.654Z,1009.39
2023-04-11T10:21:08.848Z,1009.38
2023-04-11T10:22:09.022Z,1009.44
2023-04-11T10:23:09.202Z,1009.38
2023-04-11T10:24:09.372Z,1009.41
2023-04-11T10:25:09.567Z,1009.46
2023-04-11T10:26:09.734Z,1009.40
2023-04-11T10:27:09.908Z,1009.48
2023-04-11T10:28:10.130Z,1009.45
2023-04-11T10:29:10.272Z,1009.48
2023-04-11T10:30:10.494Z,1009.64
2023-04-11T10:31:10.669Z,1009.55
2023-04-11T10:32:10.847Z,1009.70
2023-04-11T10:33:10.976Z,1009.69
2023-04-11T10:34:11.150Z,1009.71
2023-04-11T10:35:11.329Z,1009.73
2023-04-11T10:36:11.771Z,1009.79
2023-04-11T10:37:11.676Z,1009.77
2023-04-11T10:38:11.874Z,1009.89
2023-04-11T10:39:12.044Z,1009.83
2023-04-11T10:40:12.185Z,1009.79
2023-04-11T10:41:12.387Z,1009.86
2023-04-11T10:42:12.548Z,1009.88
2023-04-11T10:43:12.762Z,1009.91
2023-04-11T10:44:12.894Z,1009.82
2023-04-11T10:45:13.075Z,1009.90
2023-04-11T10:46:13.235Z,1009.84
2023-04-11T10:47:13.587Z,1009.89
2023-04-11T10:48:13.605Z,1009.85
2023-04-11T10:49:13.764Z,1009.79
2023-04-11T10:50:13.934Z,1009.81
2023-04-11T10:51:14.097Z,1009.83
2023-04-11T10:52:14.281Z,1009.81
2023-04-11T10:53:14.450Z,1009.79
2023-04-11T10:54:14.604Z,1009.87
2023-04-11T10:55:14.796Z,1009.87
2023-04-11T10:56:15.565Z,1009.84
2023-04-11T10:57:15.159Z,1009.88
2023-04-11T10:58:15.326Z,1009.88
2023-04-11T10:59:15.481Z,1009.84
2023-04-11T11:00:15.690Z,1009.86
2023-04-11T11:01:26.327Z,1009.84
2023-04-11T11:02:17.120Z,1009.77
2023-04-11T11:03:16.375Z,1009.72
2023-04-11T11:04:16.461Z,1009.76
2023-04-11T11:05:16.531Z,1009.84
2023-04-11T11:06:16.723Z,1009.84
2023-04-11T11:07:16.989Z,1009.84
2023-04-11T11:08:17.071Z,1009.91
2023-04-11T11:09:17.220Z,1009.89
2023-04-11T11:10:17.380Z,1009.89
2023-04-11T11:11:17.567Z,1009.95
2023-04-11T11:12:17.739Z,1009.87
2023-04-11T11:13:17.942Z,1009.91
2023-04-11T11:14:18.097Z,1009.91
2023-04-11T11:15:18.274Z,1009.83
2023-04-11T11:16:18.476Z,1009.94
2023-04-11T11:17:18.640Z,1009.90
2023-04-11T11:18:18.844Z,1009.85
2023-04-11T11:19:19.022Z,1009.94
2023-04-11T11:20:19.165Z,1009.94
2023-04-11T11:21:26.529Z,1010.01
2023-04-11T11:22:20.541Z,1009.99
2023-04-11T11:23:19.722Z,1009.92
2023-04-11T11:24:19.850Z,1010.05
2023-04-11T11:25:20.019Z,1010.00
2023-04-11T11:26:20.189Z,1010.02
2023-04-11T11:27:20.380Z,1010.01
2023-04-11T11:28:20.558Z,1010.01
2023-04-11T11:29:20.702Z,1010.07
2023-04-11T11:30:20.867Z,1010.10
2023-04-11T11:31:21.135Z,1010.10
2023-04-11T11:32:21.269Z,1010.05
2023-04-11T11:33:21.414Z,1010.06
2023-04-11T11:34:24.139Z,1010.04
2023-04-11T11:35:21.787Z,1010.09
2023-04-11T11:36:22.006Z,1010.15
2023-04-11T11:37:22.139Z,1010.08
2023-04-11T11:38:22.322Z,1010.13
2023-04-11T11:39:23.407Z,1010.05
2023-04-11T11:40:22.650Z,1010.05
2023-04-11T11:41:22.824Z,1010.10
2023-04-11T11:42:23.020Z,1010.08
2023-04-11T11:43:23.212Z,1010.09
2023-04-11T11:44:23.386Z,1010.10
2023-04-11T11:45:23.698Z,1010.09
2023-04-11T11:46:23.882Z,1010.17
2023-04-11T11:47:24.013Z,1010.08
2023-04-11T11:48:27.183Z,1010.13
2023-04-11T11:49:24.415Z,1010.12
2023-04-11T11:50:24.432Z,1010.06
2023-04-11T11:51:24.613Z,1010.15
2023-04-11T11:52:24.800Z,1010.14
2023-04-11T11:53:24.957Z,1010.09
2023-04-11T11:54:25.128Z,1010.18
2023-04-11T11:55:25.308Z,1010.19
2023-04-11T11:56:25.491Z,1010.23
2023-04-11T11:57:25.685Z,1010.24
2023-04-11T11:58:25.840Z,1010.23
2023-04-11T11:59:25.996Z,1010.25
2023-04-11T12:00:26.303Z,1010.20
2023-04-11T12:01:26.373Z,1010.27
2023-04-11T12:02:26.778Z,1010.26
2023-04-11T12:03:26.797Z,1010.29
2023-04-11T12:04:27.080Z,1010.29
2023-04-11T12:05:27.157Z,1010.20
2023-04-11T12:06:27.226Z,1010.28
2023-04-11T12:07:27.402Z,1010.29